Time;durP1;ratioP1;P1;durP2;ratioP2;P2;SDS_P1;SDS_P2;PMS_P1;PMS_P2;Temp;Humidity;BMP_temperature;BMP_pressure;BME280_temperature;BME280_humidity;BME280_pressure;Samples;Min_cycle;Max_cycle;Signal;HPM_P1;HPM_P2
2023/05/05 00:03:13;;;;;;;4.60;3.40;;;;;;;9.40;67.14;96941.16;106748;1275;22536;-86
2023/05/05 00:06:37;;;;;;;;;;;;;;;;;;;;;
2023/05/05 00:10:06;;;;;;;3.50;3.10;;;;;;;9.09;68.39;96933.68;106763;1262;22720;-84
2023/05/05 00:13:24;;;;;;;;;;;;;;;;;;;;;
2023/05/05 00:16:44;;;;;;;3.20;2.90;;;;;;;9.03;69.09;96928.26;108899;1277;22537;-86
2023/05/05 00:20:11;;;;;;;4.60;3.70;;;;;;;9.02;68.85;96923.09;109767;1284;22201;-86
2023/05/05 00:23:32;;;;;;;4.90;3.20;;;;;;;8.97;69.17;96922.94;109669;1277;138125;-86
2023/05/05 00:27:01;;;;;;;4.90;3.70;;;;;;;8.93;69.06;96920.83;109738;1283;22943;-86
2023/05/05 00:30:26;;;;;;;4.20;3.70;;;;;;;8.93;69.76;96917.61;109552;1276;137513;-86
2023/05/05 00:33:44;;;;;;;4.50;3.60;;;;;;;8.80;70.09;96916.49;106685;1276;22665;-86
2023/05/05 00:37:11;;;;;;;4.70;3.70;;;;;;;8.62;70.51;96911.21;106779;1276;137341;-85
2023/05/05 00:40:29;;;;;;;;;;;;;;;;;;;;;
2023/05/05 00:44:02;;;;;;;3.90;3.50;;;;;;;8.37;72.44;96905.77;106595;1280;22563;-85
2023/05/05 00:47:21;;;;;;;;;;;;;;;;;;;;;
2023/05/05 00:49:47;;;;;;;6.20;3.90;;;;;;;8.24;72.77;96908.30;106877;1276;22546;-86
2023/05/05 00:53:18;;;;;;;4.50;3.70;;;;;;;8.23;72.19;96908.13;106780;1276;138660;-86
2023/05/05 00:56:22;;;;;;;;;;;;;;;;;;;;;
2023/05/05 00:59:56;;;;;;;5.10;4.10;;;;;;;8.19;72.92;96895.20;109729;1276;137685;-86
2023/05/05 01:03:22;;;;;;;4.60;3.60;;;;;;;8.16;72.96;96891.34;107971;1276;22554;-86
2023/05/05 01:06:50;;;;;;;5.80;4.10;;;;;;;8.09;73.03;96895.81;106632;1277;137346;-86
2023/05/05 01:10:36;;;;;;;;;;;;;;;;;;;;;
2023/05/05 01:14:06;;;;;;;5.70;4.00;;;;;;;7.99;72.97;96906.84;109479;1288;22449;-86
2023/05/05 01:17:32;;;;;;;4.90;3.40;;;;;;;7.96;73.02;96906.26;109361;1284;138139;-85
2023/05/05 01:20:21;;;;;;;;;;;;;;;;;;;;;
2023/05/05 01:22:52;;;;;;;4.60;3.90;;;;;;;7.95;74.04;96905.17;106723;1276;137475;-86
2023/05/05 01:25:58;;;;;;;4.70;3.60;;;;;;;7.98;74.22;96908.39;106627;1282;25303;-85
2023/05/05 01:29:44;;;;;;;;;;;;;;;;;;;;;
2023/05/05 01:33:13;;;;;;;4.70;3.80;;;;;;;7.94;74.05;96906.17;106778;1280;22602;-85
2023/05/05 01:36:48;;;;;;;4.20;3.80;;;;;;;7.96;74.49;96902.52;109599;1277;140060;-86
2023/05/05 01:39:55;;;;;;;4.60;4.00;;;;;;;7.99;75.17;96899.44;109573;1276;23000;-86
2023/05/05 01:43:14;;;;;;;5.20;4.00;;;;;;;7.97;74.46;96897.40;109636;1280;138119;-86
2023/05/05 01:50:07;;;;;;;4.70;4.10;;;;;;;7.93;75.15;96893.63;107525;1276;22685;-86
2023/05/05 01:53:34;;;;;;;6.50;3.70;;;;;;;7.91;75.27;96890.96;106452;1277;137862;-85
2023/05/05 01:57:01;;;;;;;4.20;3.80;;;;;;;7.88;75.31;96895.41;109780;1280;22288;-86
2023/05/05 02:00:26;;;;;;;;;;;;;;;;;;;;;
2023/05/05 02:03:55;;;;;;;3.90;3.50;;;;;;;7.78;76.06;96897.92;108486;1283;24376;-86
2023/05/05 02:07:20;;;;;;;5.40;3.60;;;;;;;7.78;76.07;96899.83;109717;1283;138198;-86
2023/05/05 02:10:47;;;;;;;3.80;3.50;;;;;;;7.78;76.00;96903.03;109442;1277;22537;-86
2023/05/05 02:14:12;;;;;;;5.40;3.70;;;;;;;7.75;76.49;96903.02;106702;1277;22556;-86
2023/05/05 02:17:39;;;;;;;4.50;3.70;;;;;;;7.71;76.28;96900.31;106688;1283;137543;-85
2023/05/05 02:20:58;;;;;;;;;;;;;;;;;;;;;
2023/05/05 02:24:12;;;;;;;;;;;;;;;;;;;;;
2023/05/05 02:27:39;;;;;;;4.50;3.80;;;;;;;7.57;76.84;96894.61;109891;1276;22165;-86
2023/05/05 02:31:05;;;;;;;5.00;3.80;;;;;;;7.51;77.27;96886.42;107821;1274;138004;-86
2023/05/05 02:33:51;;;;;;;7.00;3.90;;;;;;;7.52;77.60;96887.05;106678;1280;24280;-85
2023/05/05 02:37:12;;;;;;;5.00;3.50;;;;;;;7.54;78.08;96885.83;109321;1278;138278;-86
2023/05/05 02:39:42;;;;;;;3.10;2.80;;;;;;;7.54;78.70;96881.37;106938;1274;22730;-85
2023/05/05 02:42:53;;;;;;;;;;;;;;;;;;;;;
2023/05/05 02:46:21;;;;;;;4.70;3.50;;;;;;;7.52;77.42;96887.15;106697;1280;22579;-86
2023/05/05 02:48:46;;;;;;;6.60;4.10;;;;;;;7.50;77.09;96888.59;106797;1283;137656;-85
2023/05/05 02:51:22;;;;;;;4.30;3.30;;;;;;;7.49;77.79;96889.52;106713;1280;22537;-86
2023/05/05 02:53:48;;;;;;;5.00;3.40;;;;;;;7.46;78.72;96890.24;106563;1283;137430;-86
2023/05/05 02:56:21;;;;;;;4.20;3.80;;;;;;;7.38;78.68;96897.41;106663;1277;22552;-85
2023/05/05 02:59:49;;;;;;;4.90;3.60;;;;;;;7.31;79.16;96898.20;106676;1279;138090;-85
2023/05/05 03:03:16;;;;;;;;;;;;;;;;;;;;;
2023/05/05 03:06:30;;;;;;;6.20;3.70;;;;;;;7.18;77.73;96897.36;109498;1284;137626;-86
2023/05/05 03:09:56;;;;;;;4.10;3.20;;;;;;;7.14;77.66;96893.80;108453;1276;23971;-85
2023/05/05 03:12:26;;;;;;;3.50;3.00;;;;;;;7.09;77.20;96889.42;106636;1283;137930;-85
2023/05/05 03:15:54;;;;;;;3.60;3.00;;;;;;;7.09;77.08;96887.91;109826;1277;22197;-86
2023/05/05 03:19:19;;;;;;;4.90;3.80;;;;;;;7.11;76.78;96884.30;107482;1274;139099;-85
2023/05/05 03:22:46;;;;;;;4.10;3.50;;;;;;;7.13;77.63;96879.21;106847;1274;25366;-85
2023/05/05 03:25:22;;;;;;;;;;;;;;;;;;;;;
2023/05/05 03:28:48;;;;;;;6.00;3.40;;;;;;;7.14;78.41;96882.25;109760;1276;22198;-86
2023/05/05 03:32:11;;;;;;;;;;;;;;;;;;;;;
2023/05/05 03:35:31;;;;;;;4.50;4.00;;;;;;;7.09;78.59;96879.66;102503;1282;5670553;-85
2023/05/05 03:38:50;;;;;;;3.60;2.90;;;;;;;7.09;78.62;96882.90;106808;1276;26578;-85
2023/05/05 03:42:04;;;;;;;5.80;3.10;;;;;;;7.09;80.14;96885.48;106509;1283;138107;-86
2023/05/05 03:44:59;;;;;;;;;;;;;;;;;;;;;
2023/05/05 03:48:20;;;;;;;5.60;3.60;;;;;;;7.13;79.36;96887.55;106696;1275;138697;-85
2023/05/05 03:51:47;;;;;;;4.10;3.70;;;;;;;7.18;79.10;96890.98;109850;1282;22231;-86
2023/05/05 03:54:59;;;;;;;5.60;3.30;;;;;;;7.21;79.04;96890.92;106899;1276;137467;-85
2023/05/05 03:58:25;;;;;;;4.50;3.60;;;;;;;7.23;79.41;96899.31;106786;1275;22537;-85
2023/05/05 04:01:38;;;;;;;5.50;3.60;;;;;;;7.23;79.65;96902.55;106519;1284;137472;-86
2023/05/05 04:05:05;;;;;;;4.40;3.70;;;;;;;7.23;81.28;96902.13;106780;1278;22533;-86
2023/05/05 04:08:06;;;;;;;;;;;;;;;;;;;;;
2023/05/05 04:11:27;;;;;;;4.10;3.10;;;;;;;7.23;81.94;96910.16;106683;1276;22548;-86
2023/05/05 04:14:39;;;;;;;3.90;3.50;;;;;;;7.28;81.79;96909.23;106783;1284;25502;-86
2023/05/05 04:17:58;;;;;;;5.00;3.20;;;;;;;7.33;82.33;96910.06;109740;1281;138225;-86
2023/05/05 04:21:25;;;;;;;3.50;3.20;;;;;;;7.39;81.83;96915.21;106675;1277;22678;-86
2023/05/05 04:24:39;;;;;;;5.70;3.40;;;;;;;7.44;81.43;96918.80;106605;1275;137745;-86
2023/05/05 04:28:05;;;;;;;5.80;3.70;;;;;;;7.50;81.28;96920.48;106873;1275;22573;-86
2023/05/05 04:31:31;;;;;;;4.20;3.80;;;;;;;7.54;81.90;96922.17;106628;1277;137377;-86
2023/05/05 04:34:58;;;;;;;5.00;3.50;;;;;;;7.54;81.09;96928.02;106782;1274;24262;-86
2023/05/05 04:38:10;;;;;;;5.20;4.70;;;;;;;7.56;81.83;96923.05;106631;1280;22540;-85
2023/05/05 04:41:35;;;;;;;5.20;3.60;;;;;;;7.59;81.33;96923.10;106827;1276;24261;-86
2023/05/05 04:44:53;;;;;;;4.50;3.90;;;;;;;7.62;81.50;96921.37;107657;1280;22539;-86
2023/05/05 04:48:19;;;;;;;4.30;3.90;;;;;;;7.68;81.40;96922.67;106665;1282;138288;-87
2023/05/05 04:51:46;;;;;;;4.30;3.70;;;;;;;7.75;81.10;96927.85;109755;1279;22833;-87
2023/05/05 04:54:58;;;;;;;4.80;3.80;;;;;;;7.82;81.53;96932.05;106711;1275;137442;-86
2023/05/05 04:57:55;;;;;;;4.30;3.80;;;;;;;7.96;82.21;96927.84;106741;1283;22583;-86
2023/05/05 05:00:22;;;;;;;5.80;4.20;;;;;;;8.02;82.91;96926.36;106719;1276;137461;-86
2023/05/05 05:02:49;;;;;;;4.20;3.70;;;;;;;8.00;82.82;96926.27;106821;1283;22577;-86
2023/05/05 05:05:23;;;;;;;5.80;5.20;;;;;;;7.98;82.96;96927.52;106591;1277;138128;-86
2023/05/05 05:08:05;;;;;;;;;;;;;;;;;;;;;
2023/05/05 05:10:43;;;;;;;4.30;3.30;;;;;;;7.98;82.34;96933.16;106712;1283;25190;-86
2023/05/05 05:13:25;;;;;;;;;;;;;;;;;;;;;
2023/05/05 05:16:32;;;;;;;;;;;;;;;;;;;;;
2023/05/05 05:19:27;;;;;;;4.90;3.30;;;;;;;8.17;83.74;96941.79;106671;1283;137418;-86
2023/05/05 05:22:41;;;;;;;5.00;4.00;;;;;;;8.22;83.55;96942.69;106866;1278;23884;-86
2023/05/05 05:26:04;;;;;;;;;;;;;;;;;;;;;
2023/05/05 05:29:25;;;;;;;4.40;4.00;;;;;;;8.33;84.32;96942.45;106728;1283;22937;-86
2023/05/05 05:32:51;;;;;;;5.90;4.10;;;;;;;8.39;84.25;96941.87;109826;1283;22383;-87
2023/05/05 05:36:17;;;;;;;4.30;3.20;;;;;;;8.48;84.11;96938.75;109706;1277;138632;-87
2023/05/05 05:39:44;;;;;;;5.40;3.20;;;;;;;8.59;84.25;96943.88;106718;1282;22582;-87
2023/05/05 05:43:12;;;;;;;5.20;3.30;;;;;;;8.69;84.00;96948.68;109660;1276;139327;-87
2023/05/05 05:46:06;;;;;;;4.10;3.50;;;;;;;8.82;84.65;96953.55;109900;1276;22337;-87
2023/05/05 05:49:15;;;;;;;;;;;;;;;;;;;;;
2023/05/05 05:52:42;;;;;;;7.90;5.50;;;;;;;9.07;84.13;96958.20;109668;1280;22203;-87
2023/05/05 05:55:52;;;;;;;5.50;4.30;;;;;;;9.26;82.44;96953.19;108162;1276;137509;-86
2023/05/05 05:59:11;;;;;;;5.80;4.90;;;;;;;9.44;82.74;96951.98;109789;1283;22130;-87
2023/05/05 06:02:38;;;;;;;5.40;4.80;;;;;;;9.59;83.21;96951.06;106685;1278;24223;-86
2023/05/05 06:06:04;;;;;;;5.70;5.00;;;;;;;9.74;83.33;96947.76;106534;1283;138155;-86
2023/05/05 06:09:24;;;;;;;6.10;4.70;;;;;;;9.87;80.58;96952.26;109854;1276;22200;-87
2023/05/05 06:12:42;;;;;;;;;;;;;;;;;;;;;
2023/05/05 06:16:09;;;;;;;5.70;4.40;;;;;;;10.15;80.47;96955.80;106719;1276;22552;-86
2023/05/05 06:19:38;;;;;;;6.70;5.30;;;;;;;10.28;79.38;96955.69;109682;1283;138161;-87
2023/05/05 06:22:55;;;;;;;;;;;;;;;;;;;;;
2023/05/05 06:26:22;;;;;;;8.00;5.60;;;;;;;10.47;79.45;96961.02;109536;1285;137917;-86
2023/05/05 06:29:48;;;;;;;6.80;5.20;;;;;;;10.57;77.37;96961.90;108344;1283;22646;-86
2023/05/05 06:33:14;;;;;;;7.00;5.60;;;;;;;10.64;75.58;96963.12;109790;1276;22970;-87
2023/05/05 06:36:41;;;;;;;8.30;5.60;;;;;;;10.75;75.65;96966.55;109745;1279;138405;-87
2023/05/05 06:40:08;;;;;;;7.40;5.40;;;;;;;10.87;74.94;96968.25;109785;1283;22212;-87
2023/05/05 06:43:26;;;;;;;9.40;7.20;;;;;;;11.01;74.97;96967.95;109656;1281;138108;-87
2023/05/05 06:46:53;;;;;;;7.60;6.80;;;;;;;11.13;74.60;96972.46;109807;1283;22504;-86
2023/05/05 06:50:12;;;;;;;;;;;;;;;;;;;;;
2023/05/05 06:53:32;;;;;;;8.50;6.80;;;;;;;11.39;75.07;96967.83;106741;1283;24713;-86
2023/05/05 06:56:58;;;;;;;8.00;6.60;;;;;;;11.48;74.35;96969.11;109883;1280;22416;-87
2023/05/05 07:00:18;;;;;;;7.50;6.20;;;;;;;11.55;74.10;96970.04;108655;1277;138248;-86
2023/05/05 07:03:44;;;;;;;6.90;6.10;;;;;;;11.60;72.90;96974.11;106711;1280;25305;-86
2023/05/05 07:07:04;;;;;;;;;;;;;;;;;;;;;
2023/05/05 07:10:31;;;;;;;7.40;6.60;;;;;;;11.75;72.30;96968.24;106663;1284;24237;-86
2023/05/05 07:13:50;;;;;;;;;;;;;;;;;;;;;
2023/05/05 07:17:22;;;;;;;8.80;6.90;;;;;;;11.87;70.98;96969.15;109860;1283;23327;-87
2023/05/05 07:20:49;;;;;;;8.20;7.00;;;;;;;11.92;70.55;96969.41;108099;1277;22544;-86
2023/05/05 07:24:09;;;;;;;9.10;6.30;;;;;;;11.99;69.14;96967.67;106697;1260;22529;-86
2023/05/05 07:27:28;;;;;;;;;;;;;;;;;;;;;
2023/05/05 07:31:02;;;;;;;8.20;5.80;;;;;;;12.13;68.39;96963.55;106690;1277;137873;-86
2023/05/05 07:34:12;;;;;;;9.10;5.20;;;;;;;12.20;68.01;96964.14;106647;1274;22539;-86
2023/05/05 07:37:38;;;;;;;6.20;4.80;;;;;;;12.26;68.67;96955.77;106735;1278;137582;-87
2023/05/05 07:41:06;;;;;;;6.70;5.20;;;;;;;12.34;68.27;96953.60;109784;1283;22809;-86
2023/05/05 07:44:32;;;;;;;9.80;6.10;;;;;;;12.40;66.45;96953.52;107263;1283;138013;-86
2023/05/05 07:47:50;;;;;;;;;;;;;;;;;;;;;
2023/05/05 07:51:18;;;;;;;6.50;5.40;;;;;;;12.58;68.14;96949.97;106840;1274;24461;-86
2023/05/05 07:54:42;;;;;;;;;;;;;;;;;;;;;
2023/05/05 07:58:09;;;;;;;7.90;4.20;;;;;;;12.75;66.29;96944.30;106718;1278;22495;-86
2023/05/05 08:01:35;;;;;;;6.80;4.60;;;;;;;12.81;65.20;96950.21;106566;1274;137550;-86
2023/05/05 08:05:02;;;;;;;7.20;5.70;;;;;;;12.87;64.04;96949.88;106820;1280;22549;-86
2023/05/05 08:08:14;;;;;;;8.10;5.90;;;;;;;12.91;64.66;96951.56;109541;1283;138382;-86
2023/05/05 08:11:40;;;;;;;8.30;6.00;;;;;;;12.98;65.54;96949.38;107688;1277;24917;-86
2023/05/05 08:15:07;;;;;;;6.90;5.40;;;;;;;13.07;64.97;96945.98;109768;1283;22187;-86
2023/05/05 08:18:45;;;;;;;7.20;4.90;;;;;;;13.15;64.08;96944.45;108008;1283;137944;-88
2023/05/05 08:22:06;;;;;;;7.40;5.50;;;;;;;13.27;63.91;96937.79;106639;1283;24035;-86
2023/05/05 08:25:32;;;;;;;7.50;6.30;;;;;;;13.38;63.84;96938.80;109310;1273;143218;-86
2023/05/05 08:28:59;;;;;;;6.90;6.10;;;;;;;13.53;63.50;96939.19;106729;1276;25370;-86
2023/05/05 08:32:26;;;;;;;8.10;7.00;;;;;;;13.59;62.42;96937.63;106660;1283;137506;-86
2023/05/05 08:35:52;;;;;;;8.90;6.70;;;;;;;13.67;63.79;96941.69;106671;1283;22578;-86
2023/05/05 08:39:19;;;;;;;10.30;8.50;;;;;;;13.77;64.72;96944.45;106718;1283;25365;-86
2023/05/05 08:46:12;;;;;;;10.30;6.90;;;;;;;13.96;65.59;96936.29;106646;1281;24190;-86
2023/05/05 08:49:39;;;;;;;11.60;7.60;;;;;;;14.04;64.17;96933.39;106686;1276;137678;-86
2023/05/05 08:53:05;;;;;;;9.40;6.80;;;;;;;14.08;63.64;96928.87;106765;1283;22533;-87
2023/05/05 08:56:32;;;;;;;7.40;6.40;;;;;;;14.16;64.66;96929.89;106528;1283;138366;-86
2023/05/05 09:00:00;;;;;;;7.30;6.50;;;;;;;14.27;64.92;96929.08;106759;1283;22563;-86
2023/05/05 09:03:25;;;;;;;7.30;5.00;;;;;;;14.40;64.39;96931.50;106749;1280;25406;-86
2023/05/05 09:06:52;;;;;;;10.50;5.30;;;;;;;14.54;63.41;96936.13;106779;1275;138099;-86
2023/05/05 09:10:16;;;;;;;7.00;5.20;;;;;;;14.62;61.79;96934.49;106681;1277;25232;-86
2023/05/05 09:13:43;;;;;;;7.70;5.10;;;;;;;14.70;62.13;96934.35;106683;1283;137555;-86
2023/05/05 09:17:10;;;;;;;6.60;5.60;;;;;;;14.77;60.88;96934.30;106716;1283;24658;-86
2023/05/05 09:20:35;;;;;;;5.70;4.70;;;;;;;14.81;60.30;96934.32;106511;1277;138368;-86
2023/05/05 09:24:13;;;;;;;6.10;5.20;;;;;;;14.85;59.40;96933.83;106606;1276;22527;-86
2023/05/05 09:27:40;;;;;;;8.40;6.30;;;;;;;14.90;60.24;96932.63;109621;1278;22915;-87
2023/05/05 09:31:06;;;;;;;6.60;5.00;;;;;;;15.00;61.45;96930.79;109751;1277;137854;-87
2023/05/05 09:34:33;;;;;;;7.00;4.50;;;;;;;15.11;60.70;96934.79;109799;1277;22231;-87
2023/05/05 09:38:04;;;;;;;5.00;4.10;;;;;;;15.21;61.19;96929.20;106575;1283;137882;-86
2023/05/05 09:41:31;;;;;;;5.60;5.10;;;;;;;15.29;60.20;96932.44;109909;1276;22230;-86
2023/05/05 09:44:57;;;;;;;7.00;5.90;;;;;;;15.32;59.62;96932.45;106805;1278;138023;-86
2023/05/05 09:48:27;;;;;;;7.10;5.50;;;;;;;15.42;61.59;96933.58;106647;1283;25377;-85
2023/05/05 09:51:54;;;;;;;6.30;4.90;;;;;;;15.49;60.29;96932.85;106592;1283;22584;-86
2023/05/05 09:55:23;;;;;;;7.10;5.70;;;;;;;15.58;60.12;96936.81;106567;1277;137785;-86
2023/05/05 09:58:53;;;;;;;5.90;5.20;;;;;;;15.63;58.28;96937.70;106758;1274;22743;-87
2023/05/05 10:02:23;;;;;;;6.90;5.20;;;;;;;15.71;58.97;96936.45;106405;1284;137755;-86
2023/05/05 10:05:50;;;;;;;7.30;5.40;;;;;;;15.77;60.08;96937.10;108552;1283;23297;-86
2023/05/05 10:09:17;;;;;;;7.90;5.30;;;;;;;15.88;60.22;96934.20;106689;1275;22538;-86
2023/05/05 10:12:43;;;;;;;5.50;4.70;;;;;;;15.96;58.07;96939.66;106679;1281;22936;-86
2023/05/05 10:16:09;;;;;;;5.30;4.80;;;;;;;15.92;58.14;96936.13;106780;1280;22687;-86
2023/05/05 10:19:36;;;;;;;4.70;4.10;;;;;;;15.99;58.24;96933.36;106475;1284;137740;-86
2023/05/05 10:23:06;;;;;;;6.00;4.60;;;;;;;16.09;59.97;96929.52;106833;1283;24315;-86
2023/05/05 10:26:42;;;;;;;6.00;4.60;;;;;;;16.21;58.43;96931.77;106461;1277;138127;-86
2023/05/05 10:30:09;;;;;;;5.50;5.00;;;;;;;16.31;56.08;96928.05;106854;1277;24585;-86
2023/05/05 10:33:41;;;;;;;5.50;4.80;;;;;;;16.29;56.36;96927.66;106681;1280;22547;-86
2023/05/05 10:37:04;;;;;;;;;;;;;;;;;;;;;
2023/05/05 10:40:33;;;;;;;5.20;4.70;;;;;;;16.32;55.61;96926.48;106849;1279;22788;-85
2023/05/05 10:43:59;;;;;;;6.10;4.20;;;;;;;16.36;56.46;96919.20;106619;1266;137895;-86
2023/05/05 10:47:26;;;;;;;4.60;3.80;;;;;;;16.43;56.51;96920.68;106682;1278;24256;-85
2023/05/05 10:51:01;;;;;;;6.60;5.00;;;;;;;16.43;55.61;96914.02;106479;1276;138122;-86
2023/05/05 10:54:37;;;;;;;6.00;4.00;;;;;;;16.50;55.63;96905.81;106516;1283;22609;-86
2023/05/05 10:58:04;;;;;;;5.80;4.30;;;;;;;16.60;56.25;96897.35;106561;1283;24732;-86
2023/05/05 11:01:40;;;;;;;5.40;4.40;;;;;;;16.67;54.45;96905.02;106720;1283;137683;-86
2023/05/05 11:05:43;;;;;;;5.50;4.20;;;;;;;16.66;53.08;96904.24;106753;1283;24430;-85
2023/05/05 11:08:45;;;;;;;5.60;4.20;;;;;;;16.64;53.06;96903.08;106517;1280;137553;-85
2023/05/05 11:12:24;;;;;;;6.20;4.20;;;;;;;16.69;52.73;96898.07;106682;1283;25373;-86
2023/05/05 11:16:08;;;;;;;6.20;3.80;;;;;;;16.75;52.30;96895.02;106614;1283;22556;-86
2023/05/05 11:19:34;;;;;;;3.80;3.30;;;;;;;16.78;52.79;96895.42;106678;1283;138184;-86
2023/05/05 11:23:00;;;;;;;;;;;;;;;;;;;;;
2023/05/05 11:26:37;;;;;;;4.70;3.40;;;;;;;16.84;51.11;96896.56;106313;1277;137559;-85
2023/05/05 11:30:04;;;;;;;4.20;3.80;;;;;;;16.91;51.01;96896.02;106620;1283;23918;-85
2023/05/05 11:33:29;;;;;;;4.00;3.30;;;;;;;16.92;50.73;96890.80;109450;1278;137330;-86
2023/05/05 11:36:56;;;;;;;4.30;3.20;;;;;;;16.99;50.84;96894.84;109780;1283;22334;-86
2023/05/05 11:40:25;;;;;;;5.00;3.70;;;;;;;17.04;50.27;96894.64;109776;1281;22178;-86
2023/05/05 11:43:51;;;;;;;5.10;4.10;;;;;;;17.08;50.53;96890.33;109524;1276;137704;-86
2023/05/05 11:47:21;;;;;;;5.90;3.50;;;;;;;17.11;48.65;96890.06;109856;1277;22561;-87
2023/05/05 11:50:57;;;;;;;5.60;3.70;;;;;;;17.13;49.76;96884.67;108848;1277;138689;-86
2023/05/05 11:54:25;;;;;;;5.60;3.70;;;;;;;17.23;48.88;96891.39;106701;1275;24222;-85
2023/05/05 11:57:51;;;;;;;3.50;2.80;;;;;;;17.25;48.88;96891.67;108258;1278;22561;-85
2023/05/05 12:01:18;;;;;;;4.40;3.60;;;;;;;17.33;48.15;96885.65;106747;1280;22563;-86
2023/05/05 12:04:45;;;;;;;4.30;3.60;;;;;;;17.42;50.68;96883.54;106646;1278;24396;-86
2023/05/05 12:08:14;;;;;;;3.80;3.50;;;;;;;17.50;50.13;96875.06;106572;1283;137677;-85
2023/05/05 12:11:44;;;;;;;5.50;3.60;;;;;;;17.52;49.07;96875.17;106694;1278;22585;-86
2023/05/05 12:15:10;;;;;;;5.10;3.60;;;;;;;17.58;47.92;96875.70;106490;1282;137857;-86
2023/05/05 12:18:39;;;;;;;4.70;3.10;;;;;;;17.58;47.38;96877.61;106697;1283;23928;-85
2023/05/05 12:22:17;;;;;;;3.00;2.60;;;;;;;17.61;48.65;96880.28;106581;1278;23169;-86
2023/05/05 12:25:45;;;;;;;4.70;3.10;;;;;;;17.73;47.28;96869.63;106380;1283;137723;-86
2023/05/05 12:29:10;;;;;;;3.60;3.30;;;;;;;17.71;47.43;96870.36;106690;1276;23906;-85
2023/05/05 12:32:37;;;;;;;5.20;2.90;;;;;;;17.72;46.87;96872.33;106412;1283;137437;-85
2023/05/05 12:36:03;;;;;;;5.50;3.40;;;;;;;17.71;45.37;96870.23;106626;1283;22559;-86
2023/05/05 12:39:30;;;;;;;4.60;3.10;;;;;;;17.67;45.32;96871.74;106638;1278;137567;-85
2023/05/05 12:42:57;;;;;;;4.10;3.30;;;;;;;17.67;45.91;96862.45;106598;1276;22835;-86
2023/05/05 12:46:24;;;;;;;4.50;3.20;;;;;;;17.70;46.44;96858.45;106684;1284;24214;-86
2023/05/05 12:50:01;;;;;;;4.30;3.30;;;;;;;17.78;45.87;96858.23;106514;1281;138539;-85
2023/05/05 12:53:38;;;;;;;4.30;2.70;;;;;;;17.82;45.58;96849.33;106564;1274;22997;-86
2023/05/05 12:57:11;;;;;;;5.20;2.80;;;;;;;17.83;45.11;96849.20;106446;1277;137514;-86
2023/05/05 13:00:38;;;;;;;5.10;3.20;;;;;;;17.86;44.31;96846.34;106601;1283;22535;-85
2023/05/05 13:04:05;;;;;;;3.40;2.60;;;;;;;17.86;44.42;96846.02;106593;1285;23916;-85
2023/05/05 13:07:31;;;;;;;5.10;3.00;;;;;;;17.86;44.49;96842.45;106720;1283;24670;-86
2023/05/05 13:11:06;;;;;;;5.00;2.90;;;;;;;17.97;45.16;96843.21;106674;1277;23916;-86
2023/05/05 13:14:33;;;;;;;5.40;3.00;;;;;;;18.06;45.82;96834.15;106510;1280;138829;-85
2023/05/05 13:18:01;;;;;;;2.90;2.60;;;;;;;18.12;44.26;96828.98;106805;1279;22540;-85
2023/05/05 13:21:27;;;;;;;4.50;3.30;;;;;;;18.11;43.28;96831.23;106469;1278;138020;-86
2023/05/05 13:24:54;;;;;;;3.80;2.70;;;;;;;18.07;43.03;96829.95;106781;1283;22665;-86
2023/05/05 13:28:21;;;;;;;4.30;2.90;;;;;;;18.02;42.72;96822.89;106702;1283;25082;-85
2023/05/05 13:31:48;;;;;;;4.30;2.70;;;;;;;18.04;42.55;96822.95;106647;1280;23235;-86
2023/05/05 13:35:14;;;;;;;3.50;3.10;;;;;;;18.10;43.66;96817.77;106722;1281;22594;-86
2023/05/05 13:38:40;;;;;;;;;;;;;;;;;;;;;
2023/05/05 13:42:07;;;;;;;4.40;2.60;;;;;;;18.09;42.12;96806.34;107038;1283;22618;-88
2023/05/05 13:45:34;;;;;;;4.10;2.60;;;;;;;18.15;42.64;96806.55;106571;1283;137957;-86
2023/05/05 13:49:01;;;;;;;3.30;2.60;;;;;;;18.25;42.55;96803.23;106664;1283;24246;-87
2023/05/05 13:52:28;;;;;;;3.80;2.60;;;;;;;18.28;41.52;96804.05;106742;1279;23689;-87
2023/05/05 13:55:54;;;;;;;3.40;2.30;;;;;;;18.29;41.51;96800.48;106692;1281;25353;-87
2023/05/05 13:59:21;;;;;;;3.50;2.20;;;;;;;18.26;40.42;96799.63;106600;1283;24336;-87
2023/05/05 14:02:48;;;;;;;3.00;2.10;;;;;;;18.29;40.75;96797.57;106561;1283;138152;-87
2023/05/05 14:06:15;;;;;;;4.70;2.30;;;;;;;18.35;40.88;96795.34;106636;1283;22747;-87
2023/05/05 14:09:41;;;;;;;3.90;2.00;;;;;;;18.39;40.76;96791.83;106642;1283;137506;-86
2023/05/05 14:13:07;;;;;;;4.00;2.80;;;;;;;18.46;42.15;96791.34;106614;1283;25471;-86
2023/05/05 14:16:34;;;;;;;4.20;3.00;;;;;;;18.55;41.73;96784.42;106699;1276;22535;-86
2023/05/05 14:20:02;;;;;;;3.20;2.70;;;;;;;18.57;41.28;96781.65;106640;1277;24439;-86
2023/05/05 14:23:28;;;;;;;3.20;2.30;;;;;;;18.60;41.03;96776.67;106758;1283;23364;-86
2023/05/05 14:26:55;;;;;;;3.40;2.60;;;;;;;18.63;41.21;96772.43;106535;1276;137701;-84
2023/05/05 14:30:22;;;;;;;3.90;2.40;;;;;;;18.64;40.68;96772.38;106659;1283;22560;-84
2023/05/05 14:33:50;;;;;;;3.80;2.60;;;;;;;18.66;40.82;96773.20;106499;1283;137534;-85
2023/05/05 14:37:16;;;;;;;3.30;2.50;;;;;;;18.67;40.41;96773.88;106724;1284;24235;-84
2023/05/05 14:40:44;;;;;;;3.70;2.30;;;;;;;18.65;40.00;96774.61;106655;1265;24360;-85
2023/05/05 14:44:10;;;;;;;6.50;2.60;;;;;;;18.62;39.46;96777.42;106696;1283;22630;-85
2023/05/05 14:47:37;;;;;;;2.90;2.30;;;;;;;18.62;40.79;96776.98;106495;1280;22543;-86
2023/05/05 14:51:05;;;;;;;3.40;2.20;;;;;;;18.64;41.14;96779.31;106604;1282;137616;-86
2023/05/05 14:54:31;;;;;;;2.50;2.00;;;;;;;18.65;41.20;96775.56;106718;1263;24220;-85
2023/05/05 14:57:58;;;;;;;4.40;3.00;;;;;;;18.63;40.25;96773.13;106574;1280;137535;-86
2023/05/05 15:01:25;;;;;;;4.40;2.50;;;;;;;18.62;41.02;96773.36;106613;1284;25432;-85
2023/05/05 15:04:52;;;;;;;3.30;2.40;;;;;;;18.64;41.75;96771.82;106708;1277;22548;-85
2023/05/05 15:08:18;;;;;;;3.80;2.30;;;;;;;18.63;41.50;96774.98;106604;1268;22583;-86
2023/05/05 15:11:45;;;;;;;4.90;2.50;;;;;;;18.59;40.13;96771.33;106724;1283;24322;-85
2023/05/05 15:15:11;;;;;;;2.90;2.00;;;;;;;18.54;40.14;96770.81;106581;1281;137747;-85
2023/05/05 15:18:38;;;;;;;3.80;2.30;;;;;;;18.51;40.40;96774.06;106622;1281;22582;-85
2023/05/05 15:22:05;;;;;;;3.90;2.50;;;;;;;18.45;40.28;96777.74;106617;1283;137501;-86
2023/05/05 15:25:32;;;;;;;2.90;2.30;;;;;;;18.46;41.01;96781.02;106622;1261;24474;-85
2023/05/05 15:28:59;;;;;;;2.80;2.30;;;;;;;18.48;41.76;96772.77;106676;1284;25631;-86
2023/05/05 15:32:50;;;;;;;3.30;2.20;;;;;;;18.52;41.78;96772.19;106659;1278;22642;-85
2023/05/05 15:36:00;;;;;;;5.20;2.60;;;;;;;18.49;41.81;96771.95;102513;1284;5398455;-85
2023/05/05 15:39:27;;;;;;;3.80;2.20;;;;;;;18.44;41.70;96772.50;106625;1281;138909;-85
2023/05/05 15:42:54;;;;;;;3.10;2.50;;;;;;;18.43;42.20;96775.95;106680;1278;24261;-85
2023/05/05 15:46:21;;;;;;;4.20;3.10;;;;;;;18.43;42.38;96779.27;106581;1284;137507;-85
2023/05/05 15:49:48;;;;;;;3.60;2.60;;;;;;;18.42;43.03;96783.34;106629;1276;22626;-85
2023/05/05 15:53:15;;;;;;;3.70;2.50;;;;;;;18.34;43.22;96774.58;106688;1283;22539;-85
2023/05/05 15:56:37;;;;;;;4.80;2.70;;;;;;;18.26;43.51;96773.16;106611;1281;22533;-85
2023/05/05 16:00:04;;;;;;;3.30;2.50;;;;;;;18.24;44.81;96767.73;106742;1284;23149;-85
2023/05/05 16:03:30;;;;;;;4.00;2.90;;;;;;;18.22;45.60;96771.45;106598;1284;138098;-85
2023/05/05 16:06:58;;;;;;;4.40;2.70;;;;;;;18.20;44.06;96766.14;106666;1284;23346;-86
2023/05/05 16:10:24;;;;;;;4.30;2.80;;;;;;;18.18;44.12;96763.98;106540;1276;137515;-86
2023/05/05 16:13:51;;;;;;;5.10;2.70;;;;;;;18.16;45.03;96761.86;106705;1284;22529;-85
2023/05/05 16:17:17;;;;;;;6.00;3.40;;;;;;;18.13;44.76;96761.34;106559;1276;138677;-86
2023/05/05 16:20:44;;;;;;;4.10;2.80;;;;;;;18.10;45.02;96760.52;106617;1264;25639;-86
2023/05/05 16:24:14;;;;;;;4.80;3.20;;;;;;;18.05;44.49;96762.02;106768;1277;25287;-85
2023/05/05 16:27:38;;;;;;;4.40;2.90;;;;;;;17.95;44.29;96760.96;106537;1284;138152;-85
2023/05/05 16:31:05;;;;;;;4.90;3.10;;;;;;;17.83;43.95;96758.98;106674;1284;22535;-85
2023/05/05 16:34:31;;;;;;;5.60;3.00;;;;;;;17.71;44.37;96759.02;108471;1283;137522;-85
2023/05/05 16:37:58;;;;;;;4.40;2.60;;;;;;;17.57;44.55;96764.17;109861;1284;23005;-85
2023/05/05 16:41:09;;;;;;;;;;;;;;;;;;;;;
2023/05/05 16:44:36;;;;;;;3.70;2.70;;;;;;;17.28;44.15;96759.80;109788;1283;22356;-85
2023/05/05 16:48:03;;;;;;;3.00;2.20;;;;;;;17.21;44.91;96758.48;109809;1280;22199;-85